Time;durP1;ratioP1;P1;durP2;ratioP2;P2;SDS_P1;SDS_P2;PMS_P1;PMS_P2;Temp;Humidity;BMP_temperature;BMP_pressure;BME280_temperature;BME280_humidity;BME280_pressure;Samples;Min_cycle;Max_cycle;Signal;HPM_P1;HPM_P2
2020/02/26 00:00:23;;;;;;;1.05;1.01;;;;;;;19.88;41.23;98765.17;;;;-61
2020/02/26 00:04:21;;;;;;;1.27;1.10;;;;;;;19.86;41.26;98766.56;;;;-60
2020/02/26 00:07:21;;;;;;;1.20;1.10;;;;;;;19.84;41.25;98761.00;;;;-60
2020/02/26 00:10:21;;;;;;;1.19;1.09;;;;;;;19.82;41.25;98755.03;;;;-61
2020/02/26 00:14:21;;;;;;;1.21;1.11;;;;;;;19.79;41.27;98747.71;;;;-60
2020/02/26 00:18:21;;;;;;;1.01;1.00;;;;;;;19.77;41.26;98745.75;;;;-61
2020/02/26 00:21:21;;;;;;;1.20;1.10;;;;;;;19.75;41.24;98743.96;;;;-60
2020/02/26 00:24:21;;;;;;;1.09;1.09;;;;;;;19.74;41.21;98750.05;;;;-58
2020/02/26 00:27:21;;;;;;;1.11;1.09;;;;;;;19.73;41.29;98753.56;;;;-58
2020/02/26 00:30:21;;;;;;;0.94;0.93;;;;;;;19.71;41.26;98754.70;;;;-58
2020/02/26 00:33:21;;;;;;;0.92;0.92;;;;;;;19.69;41.24;98752.48;;;;-57
2020/02/26 00:36:22;;;;;;;1.23;1.12;;;;;;;19.68;41.21;98749.86;;;;-58
2020/02/26 00:39:21;;;;;;;0.89;0.89;;;;;;;19.66;41.30;98749.11;;;;-57
2020/02/26 00:44:21;;;;;;;1.00;1.00;;;;;;;19.64;41.27;98753.34;;;;-59
2020/02/26 00:47:21;;;;;;;1.51;1.00;;;;;;;19.62;41.31;98752.88;;;;-57
2020/02/26 00:50:21;;;;;;;1.20;1.10;;;;;;;19.62;41.32;98754.16;;;;-58
2020/02/26 00:54:21;;;;;;;1.15;1.10;;;;;;;19.59;41.29;98758.55;;;;-57
2020/02/26 00:57:21;;;;;;;1.20;1.10;;;;;;;19.57;41.32;98755.33;;;;-57
2020/02/26 01:00:21;;;;;;;1.35;1.00;;;;;;;19.56;41.36;98755.98;;;;-58
2020/02/26 01:10:27;;;;;;;1.10;1.10;;;;;;;19.51;41.33;98736.89;;;;-58
2020/02/26 01:16:21;;;;;;;0.91;0.91;;;;;;;19.49;41.39;98729.58;;;;-57
2020/02/26 01:19:48;;;;;;;0.94;0.91;;;;;;;19.47;41.41;98725.60;;;;-57
2020/02/26 01:22:21;;;;;;;1.10;1.10;;;;;;;19.46;41.44;98724.34;;;;-57
2020/02/26 01:27:21;;;;;;;1.13;1.03;;;;;;;19.44;41.38;98706.47;;;;-57
2020/02/26 01:30:21;;;;;;;0.94;0.94;;;;;;;19.42;41.41;98712.32;;;;-57
2020/02/26 01:33:21;;;;;;;1.03;1.00;;;;;;;19.40;41.39;98707.67;;;;-58
2020/02/26 01:36:21;;;;;;;0.90;0.90;;;;;;;19.39;41.40;98705.41;;;;-56
2020/02/26 01:39:21;;;;;;;0.97;0.97;;;;;;;19.38;41.43;98710.91;;;;-57
2020/02/26 01:43:21;;;;;;;0.90;0.90;;;;;;;19.36;41.42;98725.34;;;;-57
2020/02/26 01:46:21;;;;;;;1.16;1.08;;;;;;;19.35;41.43;98726.69;;;;-57
2020/02/26 01:49:21;;;;;;;1.41;1.10;;;;;;;19.34;41.50;98726.67;;;;-58
2020/02/26 01:52:21;;;;;;;1.00;1.00;;;;;;;19.33;41.42;98728.97;;;;-57
2020/02/26 01:55:21;;;;;;;1.00;1.00;;;;;;;19.32;41.47;98746.80;;;;-57
2020/02/26 01:58:21;;;;;;;1.05;1.01;;;;;;;19.31;41.45;98748.02;;;;-57
2020/02/26 02:01:21;;;;;;;1.07;0.97;;;;;;;19.29;41.46;98748.98;;;;-57
2020/02/26 02:05:21;;;;;;;0.90;0.90;;;;;;;19.28;41.49;98752.41;;;;-57
2020/02/26 02:09:21;;;;;;;1.04;1.02;;;;;;;19.26;41.51;98760.85;;;;-57
2020/02/26 02:13:21;;;;;;;0.85;0.85;;;;;;;19.25;41.53;98759.89;;;;-57
2020/02/26 02:16:21;;;;;;;0.94;0.94;;;;;;;19.25;41.55;98759.56;;;;-57
2020/02/26 02:19:21;;;;;;;0.91;0.91;;;;;;;19.23;41.56;98760.63;;;;-57
2020/02/26 02:22:21;;;;;;;0.88;0.88;;;;;;;19.21;41.55;98755.07;;;;-57
2020/02/26 02:25:22;;;;;;;1.07;1.07;;;;;;;19.21;41.53;98762.16;;;;-57
2020/02/26 02:36:21;;;;;;;1.03;1.01;;;;;;;19.17;41.52;98750.98;;;;-57
2020/02/26 02:39:21;;;;;;;0.97;0.90;;;;;;;19.16;41.51;98750.03;;;;-57
2020/02/26 02:43:21;;;;;;;0.90;0.90;;;;;;;19.13;41.50;98757.36;;;;-57
2020/02/26 02:46:21;;;;;;;0.90;0.90;;;;;;;19.13;41.55;98757.20;;;;-57
2020/02/26 02:49:21;;;;;;;1.00;1.00;;;;;;;19.12;41.47;98757.89;;;;-57
2020/02/26 02:52:21;;;;;;;1.14;1.04;;;;;;;19.12;41.51;98760.06;;;;-57
2020/02/26 02:55:21;;;;;;;0.90;0.90;;;;;;;19.09;41.50;98760.34;;;;-57
2020/02/26 02:58:21;;;;;;;1.08;0.97;;;;;;;19.08;41.54;98765.74;;;;-57
2020/02/26 03:01:21;;;;;;;0.87;0.87;;;;;;;19.08;41.52;98773.70;;;;-57
2020/02/26 03:04:21;;;;;;;0.90;0.85;;;;;;;19.07;41.57;98766.16;;;;-60
2020/02/26 03:09:21;;;;;;;1.41;0.90;;;;;;;19.05;41.51;98774.91;;;;-62
2020/02/26 03:13:21;;;;;;;0.90;0.90;;;;;;;19.04;41.51;98781.48;;;;-61
2020/02/26 03:16:21;;;;;;;0.80;0.80;;;;;;;19.03;41.53;98780.56;;;;-61
2020/02/26 03:19:21;;;;;;;1.01;1.01;;;;;;;19.02;41.53;98784.89;;;;-61
2020/02/26 03:22:21;;;;;;;0.95;0.91;;;;;;;19.02;41.53;98789.98;;;;-62
2020/02/26 03:25:21;;;;;;;0.89;0.85;;;;;;;19.00;41.52;98788.27;;;;-61
2020/02/26 03:28:22;;;;;;;0.90;0.90;;;;;;;19.00;41.50;98780.51;;;;-61
2020/02/26 03:31:21;;;;;;;1.01;0.99;;;;;;;18.98;41.53;98770.42;;;;-61
2020/02/26 03:34:21;;;;;;;0.92;0.87;;;;;;;18.97;41.53;98769.73;;;;-61
2020/02/26 03:37:21;;;;;;;0.87;0.87;;;;;;;18.96;41.57;98774.06;;;;-61
2020/02/26 03:40:21;;;;;;;0.90;0.90;;;;;;;18.95;41.56;98781.23;;;;-62
2020/02/26 03:43:21;;;;;;;0.99;0.99;;;;;;;18.95;41.57;98770.70;;;;-60
2020/02/26 03:46:21;;;;;;;0.85;0.85;;;;;;;18.93;41.55;98771.00;;;;-61
2020/02/26 03:49:21;;;;;;;0.89;0.89;;;;;;;18.93;41.54;98774.78;;;;-61
2020/02/26 03:52:21;;;;;;;0.80;0.80;;;;;;;18.92;41.55;98767.73;;;;-61
2020/02/26 03:55:21;;;;;;;0.95;0.90;;;;;;;18.91;41.54;98768.89;;;;-62
2020/02/26 03:58:21;;;;;;;0.93;0.92;;;;;;;18.90;41.54;98765.36;;;;-61
2020/02/26 04:01:21;;;;;;;0.95;0.95;;;;;;;18.90;41.49;98765.52;;;;-61
2020/02/26 04:04:21;;;;;;;0.91;0.90;;;;;;;18.90;41.47;98760.67;;;;-61
2020/02/26 04:07:21;;;;;;;0.91;0.91;;;;;;;18.89;41.54;98761.05;;;;-62
2020/02/26 04:10:21;;;;;;;1.00;1.00;;;;;;;18.91;41.54;98766.35;;;;-60
2020/02/26 04:13:21;;;;;;;1.00;0.99;;;;;;;18.92;41.55;98764.36;;;;-61
2020/02/26 04:16:22;;;;;;;0.95;0.95;;;;;;;18.93;41.55;98767.33;;;;-62
2020/02/26 04:19:21;;;;;;;0.90;0.90;;;;;;;18.95;41.52;98761.84;;;;-61
2020/02/26 04:22:21;;;;;;;0.92;0.92;;;;;;;18.97;41.54;98771.81;;;;-61
2020/02/26 04:25:21;;;;;;;0.92;0.91;;;;;;;19.00;41.44;98779.08;;;;-61
2020/02/26 04:28:21;;;;;;;0.89;0.89;;;;;;;19.04;41.44;98790.70;;;;-61
2020/02/26 04:31:21;;;;;;;0.91;0.91;;;;;;;19.08;41.47;98804.16;;;;-61
2020/02/26 04:34:21;;;;;;;0.80;0.80;;;;;;;19.11;41.41;98809.49;;;;-61
2020/02/26 04:37:21;;;;;;;0.80;0.80;;;;;;;19.16;41.38;98813.88;;;;-61
2020/02/26 04:40:21;;;;;;;0.90;0.90;;;;;;;19.19;41.39;98832.10;;;;-61
2020/02/26 04:43:21;;;;;;;0.83;0.81;;;;;;;19.23;41.43;98850.16;;;;-61
2020/02/26 04:46:21;;;;;;;1.01;0.90;;;;;;;19.26;41.38;98837.73;;;;-61
2020/02/26 04:49:21;;;;;;;0.97;0.97;;;;;;;19.28;41.30;98824.98;;;;-61
2020/02/26 04:52:21;;;;;;;0.80;0.80;;;;;;;19.32;41.40;98812.33;;;;-62
2020/02/26 04:55:21;;;;;;;0.87;0.83;;;;;;;19.36;41.33;98830.80;;;;-62
2020/02/26 04:58:21;;;;;;;0.66;0.66;;;;;;;19.41;41.28;98817.33;;;;-61
2020/02/26 05:01:21;;;;;;;0.98;0.98;;;;;;;19.46;41.28;98818.42;;;;-62
2020/02/26 05:04:21;;;;;;;0.80;0.80;;;;;;;19.48;41.24;98808.75;;;;-62
2020/02/26 05:07:21;;;;;;;0.77;0.77;;;;;;;19.51;41.27;98804.05;;;;-62
2020/02/26 05:10:21;;;;;;;0.77;0.77;;;;;;;19.54;41.32;98805.91;;;;-62
2020/02/26 05:13:21;;;;;;;0.79;0.79;;;;;;;19.57;41.21;98816.95;;;;-61
2020/02/26 05:16:21;;;;;;;1.00;1.00;;;;;;;19.59;41.17;98813.70;;;;-62
2020/02/26 05:19:21;;;;;;;0.99;0.97;;;;;;;19.63;41.17;98821.14;;;;-62
2020/02/26 05:22:21;;;;;;;0.80;0.80;;;;;;;19.66;41.19;98804.85;;;;-62
2020/02/26 05:25:21;;;;;;;0.75;0.75;;;;;;;19.70;41.11;98809.78;;;;-62
2020/02/26 05:28:21;;;;;;;0.90;0.90;;;;;;;19.71;41.02;98811.80;;;;-62
2020/02/26 05:31:21;;;;;;;0.79;0.79;;;;;;;19.72;41.10;98824.24;;;;-62
2020/02/26 05:34:21;;;;;;;0.80;0.80;;;;;;;19.73;41.01;98821.14;;;;-62
2020/02/26 05:37:21;;;;;;;0.89;0.89;;;;;;;19.77;41.06;98799.11;;;;-62
2020/02/26 05:40:21;;;;;;;0.95;0.90;;;;;;;19.79;40.98;98792.61;;;;-62
2020/02/26 05:43:21;;;;;;;0.80;0.80;;;;;;;19.83;40.93;98787.05;;;;-62
2020/02/26 05:46:21;;;;;;;0.80;0.80;;;;;;;19.86;40.93;98779.28;;;;-61
2020/02/26 05:49:21;;;;;;;0.91;0.91;;;;;;;19.88;40.89;98778.58;;;;-61
2020/02/26 05:52:21;;;;;;;0.90;0.90;;;;;;;19.91;40.84;98772.77;;;;-61
2020/02/26 05:55:21;;;;;;;1.06;1.00;;;;;;;19.90;40.88;98772.84;;;;-62
2020/02/26 05:58:21;;;;;;;0.76;0.76;;;;;;;19.96;40.74;98775.36;;;;-62
2020/02/26 06:01:46;;;;;;;0.71;0.71;;;;;;;19.98;40.73;98769.81;;;;-62
2020/02/26 06:04:25;;;;;;;0.76;0.76;;;;;;;20.00;40.67;98774.67;;;;-62
2020/02/26 06:07:21;;;;;;;0.94;0.94;;;;;;;20.01;40.67;98779.16;;;;-62
2020/02/26 06:10:21;;;;;;;0.78;0.78;;;;;;;20.03;40.63;98768.87;;;;-62
2020/02/26 06:13:21;;;;;;;0.71;0.71;;;;;;;20.04;40.64;98767.78;;;;-62
2020/02/26 06:16:21;;;;;;;0.87;0.87;;;;;;;20.05;40.67;98767.48;;;;-63
2020/02/26 06:19:21;;;;;;;1.11;1.01;;;;;;;20.09;40.65;98762.25;;;;-61
2020/02/26 06:22:21;;;;;;;0.80;0.80;;;;;;;20.08;40.63;98764.41;;;;-62
2020/02/26 06:25:21;;;;;;;1.07;0.95;;;;;;;20.12;40.54;98764.54;;;;-54
2020/02/26 06:28:21;;;;;;;1.16;1.03;;;;;;;20.11;40.62;98773.67;;;;-54
2020/02/26 06:31:21;;;;;;;0.92;0.92;;;;;;;20.14;40.50;98778.31;;;;-55
2020/02/26 06:34:21;;;;;;;0.76;0.76;;;;;;;20.16;40.57;98781.93;;;;-55
2020/02/26 06:37:21;;;;;;;1.10;0.98;;;;;;;20.19;40.49;98788.54;;;;-54
2020/02/26 06:40:21;;;;;;;1.63;0.91;;;;;;;20.20;40.45;98777.33;;;;-53
2020/02/26 06:43:21;;;;;;;1.02;0.92;;;;;;;20.24;40.37;98783.30;;;;-55
2020/02/26 06:46:21;;;;;;;1.09;0.99;;;;;;;20.25;40.34;98781.16;;;;-54
2020/02/26 06:49:21;;;;;;;1.03;0.97;;;;;;;20.25;40.35;98791.86;;;;-54
2020/02/26 06:55:26;;;;;;;1.24;0.95;;;;;;;20.29;40.33;98788.56;;;;-54
2020/02/26 06:58:21;;;;;;;0.93;0.88;;;;;;;20.31;40.30;98795.13;;;;-54
2020/02/26 07:01:21;;;;;;;1.05;0.95;;;;;;;20.32;40.25;98800.94;;;;-55
2020/02/26 07:04:21;;;;;;;0.95;0.87;;;;;;;20.33;40.21;98804.48;;;;-54
2020/02/26 07:07:21;;;;;;;1.11;1.00;;;;;;;20.36;40.18;98806.63;;;;-53
2020/02/26 07:10:21;;;;;;;1.13;1.03;;;;;;;20.34;40.21;98804.65;;;;-54
2020/02/26 07:13:21;;;;;;;2.05;1.05;;;;;;;20.36;40.16;98812.31;;;;-55
2020/02/26 07:16:21;;;;;;;0.88;0.88;;;;;;;20.35;40.07;98819.18;;;;-55
2020/02/26 07:19:21;;;;;;;0.92;0.90;;;;;;;20.37;40.10;98827.43;;;;-55
2020/02/26 07:22:21;;;;;;;1.01;0.96;;;;;;;20.38;40.02;98821.47;;;;-54
2020/02/26 07:25:21;;;;;;;1.03;1.00;;;;;;;20.39;40.00;98825.02;;;;-54
2020/02/26 07:28:21;;;;;;;1.85;1.05;;;;;;;20.36;40.04;98827.82;;;;-54
2020/02/26 07:31:21;;;;;;;1.06;0.96;;;;;;;20.35;39.83;98829.06;;;;-54
2020/02/26 07:34:21;;;;;;;1.23;1.13;;;;;;;20.36;39.82;98839.05;;;;-54
2020/02/26 07:37:21;;;;;;;1.20;1.09;;;;;;;20.39;39.85;98851.67;;;;-54
2020/02/26 07:40:21;;;;;;;1.02;0.93;;;;;;;20.39;39.80;98853.19;;;;-54
2020/02/26 07:43:21;;;;;;;1.59;1.12;;;;;;;20.40;39.77;98849.67;;;;-55
2020/02/26 07:46:21;;;;;;;0.97;0.90;;;;;;;20.41;39.78;98851.60;;;;-54
2020/02/26 07:49:21;;;;;;;1.51;1.02;;;;;;;20.43;39.78;98851.91;;;;-54
2020/02/26 07:52:21;;;;;;;1.19;1.08;;;;;;;20.42;39.82;98851.04;;;;-52
2020/02/26 07:55:21;;;;;;;0.99;0.97;;;;;;;20.43;39.79;98852.91;;;;-55
2020/02/26 07:58:21;;;;;;;1.09;1.02;;;;;;;20.46;39.75;98849.59;;;;-53
2020/02/26 08:01:21;;;;;;;1.10;1.00;;;;;;;20.46;39.75;98845.41;;;;-55
2020/02/26 08:04:21;;;;;;;1.29;1.00;;;;;;;20.47;39.72;98846.75;;;;-55
2020/02/26 08:07:21;;;;;;;1.09;0.98;;;;;;;20.46;39.79;98852.27;;;;-53
2020/02/26 08:10:21;;;;;;;1.33;1.01;;;;;;;20.47;39.77;98855.21;;;;-55
2020/02/26 08:13:21;;;;;;;1.23;1.10;;;;;;;20.49;39.71;98854.14;;;;-54
2020/02/26 08:16:21;;;;;;;1.52;1.16;;;;;;;20.49;39.79;98848.44;;;;-54
2020/02/26 08:19:21;;;;;;;1.11;1.01;;;;;;;20.50;39.77;98848.31;;;;-53
2020/02/26 08:22:21;;;;;;;1.07;1.00;;;;;;;20.51;39.75;98851.67;;;;-53
2020/02/26 08:25:21;;;;;;;1.01;0.96;;;;;;;20.54;39.64;98850.12;;;;-55
2020/02/26 08:28:21;;;;;;;2.37;1.13;;;;;;;20.56;39.72;98855.33;;;;-52
2020/02/26 08:31:21;;;;;;;2.17;1.01;;;;;;;20.59;40.00;98862.17;;;;-51
2020/02/26 08:34:21;;;;;;;1.79;1.17;;;;;;;20.59;40.21;98869.48;;;;-51
2020/02/26 08:37:21;;;;;;;2.11;0.97;;;;;;;20.59;40.33;98871.16;;;;-50
2020/02/26 08:40:21;;;;;;;1.37;1.04;;;;;;;20.58;39.78;98868.55;;;;-50
2020/02/26 08:43:21;;;;;;;3.68;1.16;;;;;;;20.59;39.97;98875.52;;;;-63
2020/02/26 08:46:21;;;;;;;2.81;1.10;;;;;;;20.62;40.49;98861.04;;;;-54
2020/02/26 08:49:22;;;;;;;2.71;1.23;;;;;;;20.63;40.39;98866.17;;;;-52
2020/02/26 08:52:21;;;;;;;1.52;1.03;;;;;;;20.63;40.21;98870.27;;;;-51
2020/02/26 08:55:24;;;;;;;1.67;1.16;;;;;;;20.65;40.07;98873.75;;;;-51
2020/02/26 08:58:22;;;;;;;2.93;1.10;;;;;;;20.66;39.66;98882.81;;;;-54
2020/02/26 09:01:21;;;;;;;2.03;1.17;;;;;;;20.68;39.67;98888.13;;;;-59
2020/02/26 09:04:21;;;;;;;2.60;1.12;;;;;;;20.70;40.37;98909.80;;;;-56
2020/02/26 09:07:21;;;;;;;1.20;1.10;;;;;;;20.70;39.95;98910.80;;;;-57
2020/02/26 09:10:21;;;;;;;1.75;1.10;;;;;;;20.71;39.36;98924.99;;;;-49
2020/02/26 09:13:21;;;;;;;1.62;1.07;;;;;;;20.74;40.11;98922.10;;;;-52
2020/02/26 09:16:21;;;;;;;1.21;1.11;;;;;;;20.76;39.93;98923.64;;;;-51
2020/02/26 09:19:21;;;;;;;2.04;1.22;;;;;;;20.78;40.22;98926.44;;;;-50
2020/02/26 09:22:21;;;;;;;1.15;1.05;;;;;;;20.77;39.85;98921.03;;;;-50
2020/02/26 09:25:21;;;;;;;2.63;1.10;;;;;;;20.76;39.45;98927.59;;;;-51
2020/02/26 09:28:21;;;;;;;1.67;1.01;;;;;;;20.76;39.68;98933.70;;;;-50
2020/02/26 09:31:21;;;;;;;1.17;1.05;;;;;;;20.76;39.40;98929.01;;;;-50
2020/02/26 09:34:21;;;;;;;3.73;0.95;;;;;;;20.77;39.72;98925.56;;;;-50
2020/02/26 09:37:21;;;;;;;1.42;1.01;;;;;;;20.76;39.48;98926.58;;;;-50
2020/02/26 09:40:21;;;;;;;1.07;1.00;;;;;;;20.77;39.58;98928.34;;;;-50
2020/02/26 09:43:21;;;;;;;1.37;1.06;;;;;;;20.74;39.35;98919.67;;;;-50
2020/02/26 09:46:21;;;;;;;1.20;1.01;;;;;;;20.75;39.45;98908.78;;;;-50
2020/02/26 09:49:21;;;;;;;1.13;1.00;;;;;;;20.75;39.34;98915.07;;;;-50
2020/02/26 09:52:21;;;;;;;1.00;1.00;;;;;;;20.75;39.32;98913.56;;;;-50
2020/02/26 09:55:21;;;;;;;1.09;1.01;;;;;;;20.74;39.28;98905.15;;;;-50
2020/02/26 09:58:21;;;;;;;1.25;1.00;;;;;;;20.75;39.48;98918.09;;;;-51
2020/02/26 10:01:21;;;;;;;1.33;1.03;;;;;;;20.75;39.40;98928.24;;;;-50
2020/02/26 10:04:21;;;;;;;2.80;1.09;;;;;;;20.62;37.98;98928.30;;;;-53
2020/02/26 10:07:21;;;;;;;1.93;1.30;;;;;;;20.33;36.98;98948.05;;;;-51
2020/02/26 10:10:21;;;;;;;1.51;1.15;;;;;;;20.07;36.24;98951.41;;;;-49
2020/02/26 10:13:21;;;;;;;1.31;1.11;;;;;;;19.83;35.13;98953.48;;;;-52
2020/02/26 10:16:21;;;;;;;1.90;1.20;;;;;;;19.69;34.86;98965.03;;;;-50
2020/02/26 10:19:21;;;;;;;1.41;1.31;;;;;;;19.59;35.23;98971.61;;;;-47
2020/02/26 10:22:21;;;;;;;1.77;1.29;;;;;;;19.44;34.59;98971.23;;;;-46
2020/02/26 10:25:21;;;;;;;1.69;1.57;;;;;;;19.42;34.73;98967.51;;;;-51
2020/02/26 10:28:21;;;;;;;2.92;1.58;;;;;;;19.61;35.81;98981.29;;;;-52
2020/02/26 10:31:21;;;;;;;2.60;1.51;;;;;;;19.72;35.91;98982.75;;;;-51
2020/02/26 10:34:21;;;;;;;2.17;1.39;;;;;;;19.81;36.47;99006.88;;;;-51
2020/02/26 10:37:21;;;;;;;1.69;1.35;;;;;;;19.89;37.18;99007.95;;;;-54
2020/02/26 10:40:21;;;;;;;1.65;1.33;;;;;;;19.94;37.53;99017.90;;;;-59
2020/02/26 10:43:21;;;;;;;1.30;1.20;;;;;;;19.99;37.68;99018.89;;;;-57
2020/02/26 10:46:21;;;;;;;2.26;1.33;;;;;;;20.04;37.63;99018.31;;;;-53
2020/02/26 10:49:21;;;;;;;3.50;1.30;;;;;;;20.05;37.82;99018.23;;;;-50
2020/02/26 10:52:21;;;;;;;2.18;1.28;;;;;;;20.09;38.19;99032.06;;;;-58
2020/02/26 10:55:21;;;;;;;1.80;1.35;;;;;;;20.09;37.96;99034.97;;;;-51
2020/02/26 10:58:21;;;;;;;1.78;1.25;;;;;;;20.12;38.04;99032.19;;;;-51
2020/02/26 11:01:21;;;;;;;2.91;1.30;;;;;;;20.12;38.12;99040.16;;;;-51
2020/02/26 11:04:21;;;;;;;3.07;1.29;;;;;;;20.12;38.37;99039.66;;;;-51
2020/02/26 11:07:21;;;;;;;1.41;1.26;;;;;;;20.12;38.32;99036.88;;;;-47
2020/02/26 11:10:21;;;;;;;1.30;1.20;;;;;;;20.13;38.40;99037.57;;;;-50
2020/02/26 11:13:21;;;;;;;1.52;1.19;;;;;;;20.13;38.41;99031.70;;;;-60
2020/02/26 11:16:21;;;;;;;1.95;1.27;;;;;;;20.12;38.50;99026.32;;;;-56
2020/02/26 11:19:21;;;;;;;2.18;1.35;;;;;;;20.12;38.57;99028.67;;;;-52
2020/02/26 11:22:21;;;;;;;3.20;1.39;;;;;;;20.11;38.36;99039.63;;;;-61
2020/02/26 11:25:21;;;;;;;1.51;1.09;;;;;;;20.11;38.49;99042.32;;;;-46
2020/02/26 11:28:21;;;;;;;1.23;1.10;;;;;;;20.11;38.50;99041.48;;;;-53
2020/02/26 11:31:21;;;;;;;1.37;1.10;;;;;;;20.09;38.38;99043.52;;;;-53
2020/02/26 11:34:21;;;;;;;1.27;1.17;;;;;;;20.07;38.39;99035.03;;;;-52
2020/02/26 11:37:21;;;;;;;1.22;1.12;;;;;;;20.05;38.44;99037.08;;;;-53
2020/02/26 11:40:21;;;;;;;1.25;1.13;;;;;;;20.04;38.39;99035.82;;;;-53
2020/02/26 11:43:21;;;;;;;2.38;1.11;;;;;;;20.02;38.43;99039.20;;;;-53
2020/02/26 11:46:21;;;;;;;1.96;1.00;;;;;;;20.00;38.42;99036.14;;;;-53
2020/02/26 11:49:21;;;;;;;1.46;1.10;;;;;;;19.98;38.48;99041.42;;;;-52
2020/02/26 11:52:21;;;;;;;1.25;1.13;;;;;;;19.97;38.51;99046.95;;;;-52
2020/02/26 11:55:21;;;;;;;1.37;1.24;;;;;;;19.94;38.52;99035.61;;;;-53
2020/02/26 11:58:21;;;;;;;1.46;1.20;;;;;;;19.93;38.49;99041.67;;;;-53
2020/02/26 12:01:21;;;;;;;1.21;1.11;;;;;;;19.92;38.56;99041.58;;;;-52
2020/02/26 12:04:21;;;;;;;1.24;1.08;;;;;;;19.90;38.59;99058.06;;;;-53
2020/02/26 12:07:21;;;;;;;2.78;1.11;;;;;;;19.88;38.55;99054.23;;;;-52
2020/02/26 12:10:21;;;;;;;1.73;1.17;;;;;;;19.86;38.58;99057.64;;;;-52
2020/02/26 12:13:21;;;;;;;1.18;1.09;;;;;;;19.84;38.60;99060.85;;;;-53
2020/02/26 12:16:21;;;;;;;1.37;1.20;;;;;;;19.83;38.55;99057.08;;;;-53
2020/02/26 12:19:21;;;;;;;1.66;1.17;;;;;;;19.81;38.65;99068.09;;;;-52
2020/02/26 12:22:21;;;;;;;2.07;1.12;;;;;;;19.80;38.59;99066.73;;;;-52
2020/02/26 12:25:21;;;;;;;1.04;1.00;;;;;;;19.78;38.61;99075.57;;;;-52
2020/02/26 12:28:21;;;;;;;1.76;1.10;;;;;;;19.76;38.63;99083.16;;;;-52
2020/02/26 12:31:21;;;;;;;1.74;1.19;;;;;;;19.73;38.60;99081.26;;;;-53
2020/02/26 12:34:21;;;;;;;1.19;1.10;;;;;;;19.71;38.63;99090.86;;;;-52
2020/02/26 12:37:21;;;;;;;0.99;0.97;;;;;;;19.70;38.56;99095.77;;;;-52
2020/02/26 12:40:21;;;;;;;1.57;1.26;;;;;;;19.68;38.60;99107.04;;;;-53
2020/02/26 12:43:21;;;;;;;1.20;1.10;;;;;;;19.67;38.60;99106.41;;;;-53
2020/02/26 12:46:21;;;;;;;1.03;1.00;;;;;;;19.66;38.59;99108.81;;;;-53
2020/02/26 12:49:21;;;;;;;1.24;1.07;;;;;;;19.64;38.56;99112.72;;;;-52
2020/02/26 12:52:21;;;;;;;1.75;1.07;;;;;;;19.63;38.64;99120.91;;;;-52
2020/02/26 12:55:21;;;;;;;1.02;1.00;;;;;;;19.61;38.51;99121.53;;;;-52
2020/02/26 12:58:21;;;;;;;1.00;1.00;;;;;;;19.60;38.56;99126.26;;;;-53
2020/02/26 13:01:21;;;;;;;1.00;1.00;;;;;;;19.58;38.53;99126.75;;;;-52
2020/02/26 13:04:21;;;;;;;1.00;1.00;;;;;;;19.57;38.57;99137.44;;;;-53
2020/02/26 13:07:21;;;;;;;1.83;1.10;;;;;;;19.56;38.54;99137.59;;;;-52
2020/02/26 13:10:21;;;;;;;1.01;1.01;;;;;;;19.55;38.53;99152.97;;;;-52
2020/02/26 13:13:21;;;;;;;1.42;1.09;;;;;;;19.54;38.63;99160.38;;;;-62
2020/02/26 13:16:21;;;;;;;1.19;1.09;;;;;;;19.52;38.58;99165.46;;;;-62
2020/02/26 13:19:21;;;;;;;1.29;1.19;;;;;;;19.50;38.56;99159.88;;;;-63
2020/02/26 13:22:21;;;;;;;1.00;1.00;;;;;;;19.50;38.59;99167.92;;;;-63
2020/02/26 13:25:21;;;;;;;1.00;1.00;;;;;;;19.48;38.64;99168.38;;;;-62
2020/02/26 13:28:21;;;;;;;1.22;1.13;;;;;;;19.47;38.63;99182.91;;;;-62
2020/02/26 13:31:21;;;;;;;1.01;1.00;;;;;;;19.46;38.68;99184.30;;;;-63
2020/02/26 13:34:21;;;;;;;0.99;0.99;;;;;;;19.45;38.78;99187.48;;;;-62
2020/02/26 13:37:21;;;;;;;1.71;1.14;;;;;;;19.44;38.81;99190.38;;;;-56
2020/02/26 13:40:21;;;;;;;3.18;1.00;;;;;;;19.44;38.81;99198.98;;;;-54
2020/02/26 13:43:21;;;;;;;1.04;1.00;;;;;;;19.42;38.84;99199.38;;;;-53
2020/02/26 13:46:21;;;;;;;1.30;1.20;;;;;;;19.43;38.71;99203.91;;;;-55
2020/02/26 13:49:21;;;;;;;1.97;1.11;;;;;;;19.43;38.78;99205.63;;;;-55
2020/02/26 13:52:21;;;;;;;1.25;1.15;;;;;;;19.43;38.70;99212.29;;;;-57
2020/02/26 13:55:21;;;;;;;4.00;1.20;;;;;;;19.42;38.72;99213.94;;;;-60
2020/02/26 13:58:21;;;;;;;1.45;1.13;;;;;;;19.41;38.71;99220.52;;;;-63
2020/02/26 14:01:21;;;;;;;1.19;1.09;;;;;;;19.40;38.67;99230.49;;;;-54
2020/02/26 14:04:21;;;;;;;1.20;1.10;;;;;;;19.39;38.76;99236.36;;;;-57
2020/02/26 14:07:21;;;;;;;2.86;1.38;;;;;;;19.38;38.73;99251.77;;;;-58
2020/02/26 14:10:21;;;;;;;1.20;1.10;;;;;;;19.37;38.79;99258.61;;;;-56
2020/02/26 14:13:21;;;;;;;1.54;1.19;;;;;;;19.36;38.69;99263.58;;;;-57
2020/02/26 14:16:21;;;;;;;1.21;1.11;;;;;;;19.35;38.77;99267.66;;;;-55
2020/02/26 14:19:21;;;;;;;1.32;1.11;;;;;;;19.34;38.66;99277.11;;;;-62
2020/02/26 14:22:21;;;;;;;2.05;1.13;;;;;;;19.33;38.64;99282.88;;;;-59
2020/02/26 14:25:21;;;;;;;1.81;1.06;;;;;;;19.33;38.53;99292.39;;;;-53
2020/02/26 14:28:21;;;;;;;1.48;1.17;;;;;;;19.33;38.41;99300.36;;;;-64
2020/02/26 14:31:21;;;;;;;2.00;1.35;;;;;;;19.34;38.24;99299.88;;;;-65
2020/02/26 14:34:21;;;;;;;1.23;1.13;;;;;;;19.34;38.23;99296.09;;;;-53
2020/02/26 14:37:21;;;;;;;1.44;1.23;;;;;;;19.34;38.18;99294.59;;;;-57
2020/02/26 14:40:21;;;;;;;2.54;1.30;;;;;;;19.35;38.11;99304.33;;;;-57
2020/02/26 14:43:21;;;;;;;1.51;1.29;;;;;;;19.34;38.18;99307.65;;;;-54
2020/02/26 14:46:21;;;;;;;1.34;1.20;;;;;;;19.34;37.99;99302.32;;;;-57
2020/02/26 14:49:22;;;;;;;3.55;1.21;;;;;;;19.33;38.38;99302.97;;;;-52
2020/02/26 14:52:21;;;;;;;1.55;1.20;;;;;;;19.32;38.50;99302.00;;;;-53
2020/02/26 14:55:21;;;;;;;1.37;1.23;;;;;;;19.32;38.57;99301.34;;;;-55
2020/02/26 14:58:21;;;;;;;1.87;1.30;;;;;;;19.30;38.71;99303.12;;;;-55
2020/02/26 15:01:21;;;;;;;3.07;1.20;;;;;;;19.31;38.67;99302.81;;;;-61
2020/02/26 15:04:21;;;;;;;1.45;1.29;;;;;;;19.30;38.71;99306.70;;;;-55
2020/02/26 15:07:21;;;;;;;3.41;1.37;;;;;;;19.31;38.82;99313.09;;;;-54
2020/02/26 15:10:21;;;;;;;1.91;1.33;;;;;;;19.30;38.86;99319.19;;;;-50
2020/02/26 15:13:21;;;;;;;1.75;1.30;;;;;;;19.31;38.90;99324.08;;;;-59
2020/02/26 15:16:21;;;;;;;3.14;1.27;;;;;;;19.30;38.92;99330.67;;;;-57
2020/02/26 15:19:21;;;;;;;2.05;1.20;;;;;;;19.30;38.95;99332.65;;;;-55
2020/02/26 15:22:21;;;;;;;4.03;1.49;;;;;;;19.30;39.02;99333.75;;;;-52
2020/02/26 15:25:21;;;;;;;1.64;1.40;;;;;;;19.30;38.94;99337.61;;;;-53
2020/02/26 15:28:21;;;;;;;1.19;1.10;;;;;;;19.30;38.99;99342.62;;;;-55
2020/02/26 15:31:21;;;;;;;2.65;1.40;;;;;;;19.30;38.99;99348.98;;;;-54
2020/02/26 15:34:21;;;;;;;2.62;1.38;;;;;;;19.29;38.99;99358.00;;;;-50
2020/02/26 15:37:21;;;;;;;3.00;1.27;;;;;;;19.29;39.07;99360.08;;;;-51
2020/02/26 15:40:21;;;;;;;3.47;1.27;;;;;;;19.29;39.02;99364.77;;;;-53
2020/02/26 15:43:22;;;;;;;2.67;1.26;;;;;;;19.27;38.98;99373.51;;;;-56
2020/02/26 15:46:21;;;;;;;3.26;1.41;;;;;;;19.27;38.99;99383.05;;;;-49
2020/02/26 15:49:21;;;;;;;2.35;1.30;;;;;;;19.25;38.98;99381.59;;;;-49
2020/02/26 15:52:21;;;;;;;2.69;1.48;;;;;;;19.22;38.97;99384.58;;;;-49
2020/02/26 15:55:21;;;;;;;1.33;1.23;;;;;;;19.21;38.93;99390.52;;;;-49
2020/02/26 15:58:21;;;;;;;2.29;1.13;;;;;;;19.20;38.98;99391.06;;;;-51
2020/02/26 16:01:21;;;;;;;1.71;1.23;;;;;;;19.18;38.90;99398.20;;;;-51
2020/02/26 16:04:21;;;;;;;1.33;1.23;;;;;;;19.17;38.95;99409.95;;;;-51
2020/02/26 16:07:21;;;;;;;1.85;1.31;;;;;;;19.16;38.93;99409.85;;;;-51
2020/02/26 16:10:21;;;;;;;1.33;1.15;;;;;;;19.14;38.93;99413.21;;;;-52
2020/02/26 16:13:21;;;;;;;1.89;1.31;;;;;;;19.12;38.96;99415.33;;;;-51
2020/02/26 16:16:21;;;;;;;1.63;1.10;;;;;;;19.11;38.89;99428.69;;;;-52
2020/02/26 16:19:21;;;;;;;1.83;1.26;;;;;;;19.10;38.89;99429.99;;;;-51
2020/02/26 16:22:21;;;;;;;1.31;1.21;;;;;;;19.09;38.92;99432.23;;;;-51
2020/02/26 16:25:21;;;;;;;3.01;1.19;;;;;;;19.09;39.01;99434.65;;;;-51
2020/02/26 16:28:21;;;;;;;1.47;1.23;;;;;;;19.09;38.82;99432.91;;;;-54
2020/02/26 16:31:21;;;;;;;3.27;1.39;;;;;;;19.08;38.87;99436.97;;;;-51
2020/02/26 16:34:21;;;;;;;1.52;1.26;;;;;;;19.08;38.94;99436.05;;;;-53
2020/02/26 16:37:21;;;;;;;1.50;1.20;;;;;;;19.08;39.09;99440.55;;;;-52
2020/02/26 16:40:21;;;;;;;1.43;1.20;;;;;;;19.07;39.09;99448.64;;;;-51
2020/02/26 16:43:21;;;;;;;2.93;1.27;;;;;;;19.08;39.23;99445.40;;;;-52
2020/02/26 16:46:21;;;;;;;1.57;1.17;;;;;;;19.08;39.26;99451.25;;;;-56
2020/02/26 16:49:21;;;;;;;1.38;1.22;;;;;;;19.08;39.28;99453.59;;;;-53
2020/02/26 16:52:21;;;;;;;2.17;1.27;;;;;;;19.08;39.35;99455.88;;;;-51
2020/02/26 16:55:21;;;;;;;1.67;1.27;;;;;;;19.09;39.26;99463.03;;;;-54
2020/02/26 16:58:21;;;;;;;1.93;1.20;;;;;;;19.08;39.26;99469.42;;;;-54
2020/02/26 17:01:21;;;;;;;2.15;1.32;;;;;;;19.10;39.33;99473.00;;;;-51
2020/02/26 17:04:21;;;;;;;3.20;1.45;;;;;;;19.07;39.30;99475.32;;;;-53
2020/02/26 17:07:21;;;;;;;1.81;1.27;;;;;;;19.07;39.33;99480.44;;;;-59
2020/02/26 17:10:21;;;;;;;2.18;1.45;;;;;;;19.06;39.29;99489.61;;;;-61
2020/02/26 17:13:21;;;;;;;4.52;1.35;;;;;;;19.06;39.22;99491.45;;;;-62
2020/02/26 17:16:21;;;;;;;2.48;1.30;;;;;;;19.06;39.27;99495.30;;;;-63
2020/02/26 17:19:21;;;;;;;1.67;1.26;;;;;;;19.07;39.29;99506.37;;;;-54
2020/02/26 17:22:21;;;;;;;2.43;1.32;;;;;;;19.06;39.24;99511.44;;;;-51
2020/02/26 17:25:21;;;;;;;1.47;1.20;;;;;;;19.06;39.34;99517.05;;;;-59
2020/02/26 17:28:21;;;;;;;2.25;1.30;;;;;;;19.07;39.42;99520.27;;;;-56
2020/02/26 17:31:21;;;;;;;2.39;1.39;;;;;;;19.07;39.45;99521.77;;;;-49